Time;durP1;ratioP1;P1;durP2;ratioP2;P2;SDS_P1;SDS_P2;PMS_P1;PMS_P2;Temp;Humidity;BMP_temperature;BMP_pressure;BME280_temperature;BME280_humidity;BME280_pressure;Samples;Min_cycle;Max_cycle;Signal;HPM_P1;HPM_P2
2023/10/15 00:00:12;;;;;;;0.10;0.10;;;7.70;99.90;;;;;;5111147;27;20357;-65
2023/10/15 00:02:37;;;;;;;0.13;0.13;;;7.70;99.90;;;;;;5082587;28;20609;-65
2023/10/15 00:05:05;;;;;;;0.10;0.10;;;7.70;99.90;;;;;;5118558;27;20032;-64
2023/10/15 00:07:31;;;;;;;0.00;0.00;;;7.70;99.90;;;;;;5076925;28;20494;-64
2023/10/15 00:09:56;;;;;;;0.00;0.00;;;7.70;99.90;;;;;;5084926;28;20096;-64
2023/10/15 00:12:22;;;;;;;1.45;1.10;;;7.80;99.90;;;;;;5081195;28;20487;-65
2023/10/15 00:14:47;;;;;;;0.73;0.30;;;7.80;99.90;;;;;;5112626;27;20032;-65
2023/10/15 00:17:13;;;;;;;0.00;0.00;;;7.70;99.90;;;;;;5080154;28;20040;-64
2023/10/15 00:19:39;;;;;;;0.10;0.10;;;7.70;99.90;;;;;;5085750;28;20036;-64
2023/10/15 00:22:07;;;;;;;0.10;0.10;;;7.70;99.90;;;;;;5120306;27;20043;-65
2023/10/15 00:24:33;;;;;;;0.10;0.10;;;7.70;99.90;;;;;;5119659;27;20122;-65
2023/10/15 00:26:58;;;;;;;0.10;0.10;;;7.60;99.90;;;;;;5090455;28;20126;-65
2023/10/15 00:29:25;;;;;;;0.00;0.00;;;7.70;99.90;;;;;;5088998;27;20035;-65
2023/10/15 00:31:50;;;;;;;0.00;0.00;;;7.70;99.90;;;;;;5073125;28;20043;-65
2023/10/15 00:34:17;;;;;;;0.85;0.85;;;7.70;99.90;;;;;;5114211;27;20035;-65
2023/10/15 00:36:43;;;;;;;0.35;0.10;;;7.70;99.90;;;;;;5082263;28;20028;-64
2023/10/15 00:39:20;;;;;;;0.00;0.00;;;7.70;99.90;;;;;;5081994;28;20502;-64
2023/10/15 00:41:47;;;;;;;0.00;0.00;;;7.70;99.90;;;;;;5081034;28;20114;-65
2023/10/15 00:44:14;;;;;;;0.10;0.10;;;7.60;99.90;;;;;;5099056;28;20436;-66
2023/10/15 00:46:41;;;;;;;0.10;0.10;;;7.60;99.90;;;;;;5080911;28;20043;-65
2023/10/15 00:49:14;;;;;;;0.05;0.05;;;7.60;99.90;;;;;;5078297;28;20111;-65
2023/10/15 00:51:44;;;;;;;0.00;0.00;;;7.50;99.90;;;;;;5081604;27;20137;-65
2023/10/15 00:54:17;;;;;;;0.90;0.90;;;7.50;99.90;;;;;;5082371;28;20122;-65
2023/10/15 00:56:47;;;;;;;0.05;0.05;;;7.40;99.90;;;;;;5115512;27;20475;-65
2023/10/15 01:04:24;;;;;;;1.65;0.85;;;7.30;99.90;;;;;;5085209;28;20555;-65
2023/10/15 01:06:50;;;;;;;0.10;0.10;;;7.20;99.90;;;;;;5083235;28;20054;-65
2023/10/15 01:09:20;;;;;;;0.10;0.10;;;7.20;99.90;;;;;;5079034;28;20546;-65
2023/10/15 01:11:58;;;;;;;0.08;0.08;;;7.20;99.90;;;;;;5117463;27;20486;-65
2023/10/15 01:14:31;;;;;;;0.15;0.15;;;7.20;99.90;;;;;;5080893;28;20040;-64
2023/10/15 01:16:59;;;;;;;0.00;0.00;;;7.20;99.90;;;;;;5085199;28;20450;-66
2023/10/15 01:19:33;;;;;;;0.00;0.00;;;7.20;99.90;;;;;;5081508;28;20505;-65
2023/10/15 01:22:04;;;;;;;0.00;0.00;;;7.20;99.90;;;;;;5114643;27;20043;-64
2023/10/15 01:24:34;;;;;;;0.25;0.25;;;7.20;99.90;;;;;;5082692;28;20040;-65
2023/10/15 01:27:11;;;;;;;0.03;0.03;;;7.20;99.90;;;;;;5082854;28;20457;-66
2023/10/15 01:29:42;;;;;;;0.10;0.10;;;7.10;99.90;;;;;;5115142;27;20073;-65
2023/10/15 01:32:13;;;;;;;0.00;0.00;;;7.10;99.90;;;;;;5104949;28;20040;-65
2023/10/15 01:34:45;;;;;;;0.00;0.00;;;7.10;99.90;;;;;;5076813;28;20437;-65
2023/10/15 01:37:15;;;;;;;0.50;0.50;;;7.10;99.90;;;;;;5081277;28;20093;-66
2023/10/15 01:39:48;;;;;;;0.00;0.00;;;7.10;99.90;;;;;;5078716;28;20617;-66
2023/10/15 01:47:44;;;;;;;0.00;0.00;;;7.20;99.90;;;;;;5113699;27;20070;-66
2023/10/15 01:50:15;;;;;;;0.20;0.20;;;7.10;99.90;;;;;;5081659;28;20462;-67
2023/10/15 01:52:43;;;;;;;0.00;0.00;;;7.10;99.90;;;;;;5081477;28;20044;-66
2023/10/15 01:55:09;;;;;;;0.03;0.03;;;7.10;99.90;;;;;;5082479;27;20047;-67
2023/10/15 01:57:36;;;;;;;0.10;0.10;;;7.10;99.90;;;;;;5083536;27;20108;-66
2023/10/15 02:00:13;;;;;;;0.00;0.00;;;7.10;99.90;;;;;;5083947;28;20130;-66
2023/10/15 02:02:42;;;;;;;0.10;0.10;;;7.00;99.90;;;;;;5083573;28;20279;-66
2023/10/15 02:07:53;;;;;;;0.20;0.20;;;6.90;99.90;;;;;;5087760;28;20043;-66
2023/10/15 02:10:19;;;;;;;0.00;0.00;;;6.90;99.90;;;;;;5082042;28;20051;-66
2023/10/15 02:12:51;;;;;;;0.00;0.00;;;6.80;99.90;;;;;;5106854;27;20514;-66
2023/10/15 02:15:22;;;;;;;0.10;0.10;;;6.80;99.90;;;;;;5114665;27;20510;-66
2023/10/15 02:17:52;;;;;;;0.10;0.10;;;6.80;99.90;;;;;;5121763;27;20054;-66
2023/10/15 02:20:39;;;;;;;0.00;0.00;;;6.60;99.90;;;;;;5086575;28;20048;-66
2023/10/15 02:23:03;;;;;;;0.10;0.10;;;6.60;99.90;;;;;;5114293;27;20406;-66
2023/10/15 02:25:35;;;;;;;0.20;0.20;;;6.60;99.90;;;;;;5086981;28;20034;-66
2023/10/15 02:28:00;;;;;;;0.08;0.08;;;6.50;99.90;;;;;;5086486;28;20047;-66
2023/10/15 02:30:26;;;;;;;0.10;0.10;;;6.50;99.90;;;;;;5084237;28;20047;-66
2023/10/15 02:32:53;;;;;;;0.10;0.10;;;6.50;99.90;;;;;;5084276;28;20421;-66
2023/10/15 02:35:24;;;;;;;0.10;0.10;;;6.50;99.90;;;;;;5082875;28;20070;-66
2023/10/15 02:37:49;;;;;;;0.00;0.00;;;6.40;99.90;;;;;;5085682;28;20475;-66
2023/10/15 02:40:18;;;;;;;0.00;0.00;;;6.40;99.90;;;;;;5080415;27;20031;-66
2023/10/15 02:42:52;;;;;;;0.10;0.10;;;6.30;99.90;;;;;;5082927;28;20097;-66
2023/10/15 02:45:21;;;;;;;2.17;1.20;;;6.30;99.90;;;;;;5083172;28;20059;-67
2023/10/15 02:47:54;;;;;;;0.00;0.00;;;6.30;99.90;;;;;;5078998;28;20036;-66
2023/10/15 02:50:23;;;;;;;0.00;0.00;;;6.20;99.90;;;;;;5086625;28;20172;-67
2023/10/15 02:52:49;;;;;;;0.00;0.00;;;6.20;99.90;;;;;;5070231;28;20043;-66
2023/10/15 02:55:15;;;;;;;0.00;0.00;;;6.20;99.90;;;;;;5081742;28;20373;-67
2023/10/15 02:57:42;;;;;;;1.45;0.20;;;6.10;99.90;;;;;;5121841;27;20799;-66
2023/10/15 03:00:13;;;;;;;0.00;0.00;;;6.10;99.90;;;;;;5115623;27;20035;-66
2023/10/15 03:02:44;;;;;;;0.13;0.10;;;6.10;99.90;;;;;;5083831;28;20042;-66
2023/10/15 03:05:15;;;;;;;0.00;0.00;;;6.10;99.90;;;;;;5082133;28;20059;-66
2023/10/15 03:07:45;;;;;;;0.00;0.00;;;6.00;99.90;;;;;;5087433;28;20046;-66
2023/10/15 03:10:12;;;;;;;0.20;0.20;;;6.00;99.90;;;;;;5115461;27;20051;-66
2023/10/15 03:12:44;;;;;;;0.10;0.10;;;6.00;99.90;;;;;;5083551;27;20042;-66
2023/10/15 03:15:17;;;;;;;0.00;0.00;;;5.90;99.90;;;;;;5086931;28;20035;-66
2023/10/15 03:17:45;;;;;;;0.10;0.10;;;6.00;99.90;;;;;;5080985;27;20114;-66
2023/10/15 03:22:45;;;;;;;0.30;0.30;;;6.00;99.90;;;;;;5115849;27;20079;-66
2023/10/15 03:25:13;;;;;;;0.08;0.08;;;6.00;99.90;;;;;;5086928;27;20543;-66
2023/10/15 03:27:54;;;;;;;0.10;0.10;;;6.00;99.90;;;;;;5114088;27;20088;-66
2023/10/15 03:30:23;;;;;;;0.10;0.10;;;6.00;99.90;;;;;;5083244;28;20516;-66
2023/10/15 03:32:52;;;;;;;0.00;0.00;;;6.00;99.90;;;;;;5086521;28;20043;-66
2023/10/15 03:35:43;;;;;;;0.52;0.43;;;6.00;99.90;;;;;;5082508;28;20035;-66
2023/10/15 03:38:15;;;;;;;0.28;0.17;;;6.10;99.90;;;;;;5092780;28;20375;-67
2023/10/15 03:40:49;;;;;;;0.10;0.10;;;6.20;99.90;;;;;;5118063;27;20051;-66
2023/10/15 03:43:15;;;;;;;0.10;0.10;;;6.20;99.90;;;;;;5083404;28;20486;-66
2023/10/15 03:45:53;;;;;;;0.10;0.10;;;6.30;99.90;;;;;;5115603;27;20100;-66
2023/10/15 03:48:21;;;;;;;0.45;0.45;;;6.30;99.90;;;;;;5079135;28;20039;-67
2023/10/15 03:50:54;;;;;;;0.10;0.10;;;6.20;99.90;;;;;;5115634;27;20047;-66
2023/10/15 03:53:28;;;;;;;0.03;0.03;;;6.20;99.90;;;;;;5076667;28;20126;-66
2023/10/15 03:55:57;;;;;;;2.08;0.40;;;6.20;99.90;;;;;;5113975;27;20038;-66
2023/10/15 03:58:27;;;;;;;0.10;0.10;;;6.10;99.90;;;;;;5086586;27;20416;-66
2023/10/15 04:01:12;;;;;;;1.85;0.35;;;6.10;99.90;;;;;;5086107;28;20047;-66
2023/10/15 04:03:42;;;;;;;0.10;0.10;;;6.00;99.90;;;;;;5088114;28;20036;-66
2023/10/15 04:06:07;;;;;;;0.00;0.00;;;6.00;99.90;;;;;;5087570;28;20046;-67
2023/10/15 04:08:33;;;;;;;0.10;0.10;;;6.00;99.90;;;;;;5063317;28;20039;-66
2023/10/15 04:10:59;;;;;;;0.05;0.05;;;6.00;99.90;;;;;;5102917;28;20050;-66
2023/10/15 04:13:28;;;;;;;0.03;0.03;;;6.00;99.90;;;;;;5073168;28;20518;-67
2023/10/15 04:15:55;;;;;;;0.25;0.10;;;6.00;99.90;;;;;;5096278;27;20036;-66
2023/10/15 04:18:25;;;;;;;0.38;0.20;;;6.00;99.90;;;;;;5079988;28;20055;-66
2023/10/15 04:20:52;;;;;;;0.10;0.10;;;6.00;99.90;;;;;;5118151;27;20081;-66
2023/10/15 04:23:34;;;;;;;0.00;0.00;;;5.90;99.90;;;;;;5084782;28;20496;-66
2023/10/15 04:26:07;;;;;;;0.10;0.10;;;5.90;99.90;;;;;;5108578;27;20510;-66
2023/10/15 04:28:34;;;;;;;0.10;0.10;;;5.90;99.90;;;;;;5086882;27;20399;-66
2023/10/15 04:31:00;;;;;;;0.20;0.20;;;5.80;99.90;;;;;;5085699;28;20039;-66
2023/10/15 04:33:28;;;;;;;0.10;0.10;;;5.90;99.90;;;;;;5082281;27;20062;-66
2023/10/15 04:35:56;;;;;;;0.00;0.00;;;5.90;99.90;;;;;;5082602;28;20440;-66
2023/10/15 04:38:22;;;;;;;1.20;1.02;;;6.00;99.90;;;;;;5070468;28;20044;-66
2023/10/15 04:43:25;;;;;;;0.00;0.00;;;6.10;99.90;;;;;;5112503;27;20518;-66
2023/10/15 04:45:54;;;;;;;0.20;0.13;;;6.10;99.90;;;;;;5114062;27;20062;-66
2023/10/15 04:48:26;;;;;;;0.13;0.13;;;6.20;99.90;;;;;;5084800;28;20055;-66
2023/10/15 04:50:52;;;;;;;;;;;6.20;99.90;;;;;;5084662;28;20086;-66
2023/10/15 04:55:48;;;;;;;0.00;0.00;;;6.40;99.90;;;;;;5082261;28;20043;-65
2023/10/15 04:58:15;;;;;;;0.10;0.10;;;6.40;99.90;;;;;;5083746;28;20065;-66
2023/10/15 05:00:50;;;;;;;0.00;0.00;;;6.40;99.90;;;;;;5078714;28;20102;-65
2023/10/15 05:03:16;;;;;;;0.08;0.08;;;6.40;99.90;;;;;;5083389;28;20035;-66
2023/10/15 05:05:42;;;;;;;0.10;0.10;;;6.50;99.90;;;;;;5083016;28;20040;-67
2023/10/15 05:08:11;;;;;;;0.00;0.00;;;6.50;99.90;;;;;;5085072;28;20069;-66
2023/10/15 05:10:38;;;;;;;0.00;0.00;;;6.60;99.90;;;;;;5078636;28;20548;-66
2023/10/15 05:13:04;;;;;;;1.08;1.08;;;6.60;99.90;;;;;;5078070;28;20088;-66
2023/10/15 05:15:30;;;;;;;0.10;0.10;;;6.70;99.90;;;;;;5082777;28;20074;-66
2023/10/15 05:17:56;;;;;;;0.00;0.00;;;6.70;99.90;;;;;;5087952;28;20071;-66
2023/10/15 05:20:21;;;;;;;0.05;0.05;;;6.70;99.90;;;;;;5087677;28;20081;-66
2023/10/15 05:22:47;;;;;;;0.10;0.10;;;6.70;99.90;;;;;;5112836;27;20130;-66
2023/10/15 05:25:19;;;;;;;0.35;0.25;;;6.80;99.90;;;;;;5088824;28;20118;-67
2023/10/15 05:27:45;;;;;;;0.10;0.10;;;6.70;99.90;;;;;;5088608;28;20383;-66
2023/10/15 05:30:15;;;;;;;0.10;0.10;;;6.70;99.90;;;;;;5089304;28;20429;-66
2023/10/15 05:32:43;;;;;;;0.00;0.00;;;6.70;99.90;;;;;;5115040;27;20403;-66
2023/10/15 05:35:09;;;;;;;0.00;0.00;;;6.70;99.90;;;;;;5120929;28;20820;-66
2023/10/15 05:37:42;;;;;;;0.00;0.00;;;6.70;99.90;;;;;;5082598;28;20080;-66
2023/10/15 05:40:08;;;;;;;0.00;0.00;;;6.70;99.90;;;;;;5107806;28;20032;-67
2023/10/15 05:42:35;;;;;;;3.97;0.80;;;6.70;99.90;;;;;;5086412;28;20486;-66
2023/10/15 05:45:00;;;;;;;0.65;0.30;;;6.70;99.90;;;;;;5085496;28;20125;-65
2023/10/15 05:47:26;;;;;;;0.10;0.10;;;6.80;99.90;;;;;;5089207;28;20036;-66
2023/10/15 05:49:54;;;;;;;0.93;0.15;;;6.70;99.90;;;;;;5090508;28;20511;-66
2023/10/15 05:52:19;;;;;;;0.13;0.13;;;6.70;99.90;;;;;;5087235;28;20577;-66
2023/10/15 05:54:47;;;;;;;0.10;0.10;;;6.70;99.90;;;;;;5117420;28;20125;-65
2023/10/15 05:57:13;;;;;;;0.10;0.10;;;6.70;99.90;;;;;;5112748;28;20152;-66
2023/10/15 05:59:38;;;;;;;0.22;0.10;;;6.60;99.90;;;;;;5090642;28;20138;-65
2023/10/15 06:02:04;;;;;;;0.10;0.10;;;6.60;99.90;;;;;;5079627;28;20047;-65
2023/10/15 06:04:30;;;;;;;0.10;0.10;;;6.60;99.90;;;;;;5089759;28;20041;-65
2023/10/15 06:06:57;;;;;;;0.00;0.00;;;6.60;99.90;;;;;;5087399;28;20054;-65
2023/10/15 06:09:23;;;;;;;0.65;0.10;;;6.70;99.90;;;;;;5108668;28;20127;-66
2023/10/15 06:11:49;;;;;;;0.10;0.10;;;6.80;99.90;;;;;;5102317;28;20247;-65
2023/10/15 06:14:15;;;;;;;0.10;0.10;;;6.90;99.90;;;;;;5087332;28;20047;-65
2023/10/15 06:16:41;;;;;;;0.03;0.03;;;7.00;99.90;;;;;;5090319;28;20115;-67
2023/10/15 06:19:09;;;;;;;0.00;0.00;;;7.00;99.90;;;;;;5085925;28;20047;-66
2023/10/15 06:21:35;;;;;;;0.22;0.10;;;6.90;99.90;;;;;;5121228;28;20044;-66
2023/10/15 06:24:00;;;;;;;0.10;0.10;;;6.80;99.90;;;;;;5085664;28;20170;-67
2023/10/15 06:26:26;;;;;;;0.10;0.10;;;6.50;99.90;;;;;;5087063;28;20031;-66
2023/10/15 06:28:52;;;;;;;0.00;0.00;;;6.40;99.90;;;;;;5113106;28;20040;-66
2023/10/15 06:31:17;;;;;;;0.10;0.10;;;6.20;99.90;;;;;;5090357;28;20067;-66
2023/10/15 06:33:44;;;;;;;0.10;0.10;;;6.10;99.90;;;;;;5085648;28;20032;-66
2023/10/15 06:36:09;;;;;;;0.00;0.00;;;6.10;99.90;;;;;;5088335;28;20032;-66
2023/10/15 06:38:35;;;;;;;0.00;0.00;;;6.00;99.90;;;;;;5084328;28;20034;-66
2023/10/15 06:41:01;;;;;;;0.10;0.10;;;6.00;99.90;;;;;;5066834;28;20089;-66
2023/10/15 06:43:27;;;;;;;0.10;0.10;;;6.00;99.90;;;;;;5094762;28;20047;-65
2023/10/15 06:45:53;;;;;;;0.10;0.10;;;6.00;99.90;;;;;;5078946;28;20047;-66
2023/10/15 06:48:22;;;;;;;0.00;0.00;;;6.00;99.90;;;;;;5085662;28;20043;-67
2023/10/15 06:50:48;;;;;;;0.10;0.10;;;6.10;99.90;;;;;;5108821;28;20048;-66
2023/10/15 06:53:13;;;;;;;0.57;0.30;;;6.10;99.90;;;;;;5075557;28;20496;-67
2023/10/15 06:55:39;;;;;;;0.00;0.00;;;6.10;99.90;;;;;;5075289;28;20039;-67
2023/10/15 06:58:04;;;;;;;0.10;0.10;;;6.20;99.90;;;;;;5121108;27;20039;-67
2023/10/15 07:00:31;;;;;;;0.10;0.10;;;6.20;99.90;;;;;;5095129;28;20458;-66
2023/10/15 07:02:57;;;;;;;0.08;0.08;;;6.20;99.90;;;;;;5116319;27;20052;-66
2023/10/15 07:05:25;;;;;;;0.10;0.10;;;6.10;99.90;;;;;;5077553;28;20044;-66
2023/10/15 07:07:51;;;;;;;0.10;0.10;;;6.10;99.90;;;;;;5083307;28;20058;-66
2023/10/15 07:10:17;;;;;;;0.00;0.00;;;6.00;99.90;;;;;;5109920;27;20044;-66
2023/10/15 07:12:45;;;;;;;0.10;0.10;;;6.00;99.90;;;;;;5087690;28;20046;-66
2023/10/15 07:15:13;;;;;;;0.00;0.00;;;6.00;99.90;;;;;;5089888;28;20043;-65
2023/10/15 07:17:39;;;;;;;0.00;0.00;;;6.00;99.90;;;;;;5092706;28;20119;-65
2023/10/15 07:20:14;;;;;;;0.00;0.00;;;6.10;99.90;;;;;;5092961;28;20043;-66
2023/10/15 07:22:44;;;;;;;0.00;0.00;;;6.20;99.90;;;;;;5084508;28;20103;-66
2023/10/15 07:25:10;;;;;;;0.08;0.08;;;6.40;99.90;;;;;;5085414;27;20142;-65
2023/10/15 07:27:38;;;;;;;0.00;0.00;;;6.60;99.90;;;;;;5088280;27;20110;-68
2023/10/15 07:30:06;;;;;;;0.93;0.15;;;6.70;99.90;;;;;;5125343;27;20428;-67
2023/10/15 07:32:33;;;;;;;0.00;0.00;;;6.80;99.90;;;;;;5085929;27;20088;-68
2023/10/15 07:34:59;;;;;;;0.10;0.10;;;6.90;99.90;;;;;;5093640;27;20078;-66
2023/10/15 07:37:25;;;;;;;0.00;0.00;;;6.90;99.90;;;;;;5122519;27;20554;-67
2023/10/15 07:39:50;;;;;;;0.10;0.10;;;6.90;99.90;;;;;;5085976;28;20126;-67
2023/10/15 07:42:16;;;;;;;0.08;0.08;;;6.90;99.90;;;;;;5108380;27;20080;-66
2023/10/15 07:44:41;;;;;;;0.10;0.10;;;6.80;99.90;;;;;;5091003;28;20042;-66
2023/10/15 07:47:07;;;;;;;0.10;0.10;;;6.80;99.90;;;;;;5118954;27;20539;-65
2023/10/15 07:49:34;;;;;;;0.00;0.00;;;6.80;99.90;;;;;;5088370;27;20040;-65
2023/10/15 07:51:59;;;;;;;0.10;0.10;;;6.80;99.90;;;;;;5084060;28;20040;-65
2023/10/15 07:54:25;;;;;;;0.10;0.10;;;6.90;99.90;;;;;;5092279;28;20047;-66
2023/10/15 07:56:50;;;;;;;0.43;0.10;;;6.90;99.90;;;;;;5085552;28;20354;-66
2023/10/15 07:59:16;;;;;;;0.10;0.10;;;7.00;99.90;;;;;;5090887;28;20382;-65
2023/10/15 08:01:41;;;;;;;0.00;0.00;;;7.00;99.90;;;;;;5087838;28;20058;-66
2023/10/15 08:04:09;;;;;;;0.40;0.40;;;7.10;99.90;;;;;;5087450;27;20032;-65
2023/10/15 08:06:34;;;;;;;0.47;0.10;;;7.10;99.90;;;;;;5115167;27;20042;-66
2023/10/15 08:09:00;;;;;;;0.08;0.08;;;7.20;99.90;;;;;;5087655;28;20414;-65
2023/10/15 08:11:26;;;;;;;0.00;0.00;;;7.20;99.90;;;;;;5093292;28;20085;-65
2023/10/15 08:13:51;;;;;;;0.00;0.00;;;7.40;99.90;;;;;;5085892;28;20051;-65
2023/10/15 08:16:18;;;;;;;0.20;0.20;;;7.50;99.90;;;;;;5075867;28;20114;-65
2023/10/15 08:18:44;;;;;;;0.00;0.00;;;7.70;99.90;;;;;;5088763;28;20043;-65
2023/10/15 08:21:11;;;;;;;0.00;0.00;;;7.70;99.90;;;;;;5124630;27;20043;-65
2023/10/15 08:23:38;;;;;;;0.20;0.20;;;7.90;99.90;;;;;;5084858;28;20504;-65
2023/10/15 08:26:05;;;;;;;0.00;0.00;;;7.90;99.90;;;;;;5093762;28;20051;-66
2023/10/15 08:28:31;;;;;;;0.10;0.10;;;7.90;99.90;;;;;;5061284;28;20079;-65
2023/10/15 08:30:57;;;;;;;0.10;0.10;;;8.00;99.90;;;;;;5085688;28;20109;-65
2023/10/15 08:33:23;;;;;;;0.10;0.10;;;8.00;99.90;;;;;;5115608;27;20043;-65
2023/10/15 08:35:49;;;;;;;0.10;0.10;;;8.00;99.90;;;;;;5089517;27;20703;-66
2023/10/15 08:38:15;;;;;;;0.10;0.10;;;8.00;99.90;;;;;;5074023;28;20062;-66
2023/10/15 08:40:45;;;;;;;0.30;0.30;;;8.00;99.90;;;;;;5089961;28;20486;-66
2023/10/15 08:43:26;;;;;;;0.10;0.10;;;8.00;99.90;;;;;;5121319;27;20059;-66
2023/10/15 08:45:53;;;;;;;0.10;0.10;;;8.10;99.90;;;;;;5085630;27;20078;-66
2023/10/15 08:48:19;;;;;;;0.00;0.00;;;8.20;99.90;;;;;;5083155;27;20523;-66
2023/10/15 08:50:48;;;;;;;0.10;0.10;;;8.20;99.90;;;;;;5091583;28;20418;-66
2023/10/15 08:53:13;;;;;;;0.10;0.10;;;8.30;99.90;;;;;;5086502;27;20035;-66
2023/10/15 08:55:43;;;;;;;0.00;0.00;;;8.30;99.90;;;;;;5076962;27;20046;-67
2023/10/15 08:58:09;;;;;;;0.00;0.00;;;8.40;99.90;;;;;;5109610;27;20085;-67
2023/10/15 09:00:39;;;;;;;0.80;0.80;;;8.50;99.90;;;;;;5091333;27;20043;-66
2023/10/15 09:03:05;;;;;;;0.08;0.08;;;8.50;99.90;;;;;;5121566;27;20112;-65
2023/10/15 09:05:33;;;;;;;0.03;0.03;;;8.70;99.90;;;;;;5115160;27;20419;-67
2023/10/15 09:08:06;;;;;;;0.10;0.10;;;8.90;99.90;;;;;;5115217;27;20707;-66
2023/10/15 09:10:34;;;;;;;0.10;0.10;;;9.10;99.90;;;;;;5112275;27;20051;-67
2023/10/15 09:12:59;;;;;;;0.65;0.55;;;9.10;99.90;;;;;;5084277;28;20143;-67
2023/10/15 09:15:29;;;;;;;0.03;0.03;;;9.10;99.90;;;;;;5087556;28;20521;-66
2023/10/15 09:17:58;;;;;;;0.20;0.20;;;9.10;99.90;;;;;;5120285;27;20093;-65
2023/10/15 09:20:32;;;;;;;1.35;0.40;;;9.00;99.90;;;;;;5091982;28;20073;-67
2023/10/15 09:22:59;;;;;;;0.35;0.10;;;8.90;99.90;;;;;;5090062;28;20043;-66
2023/10/15 09:25:29;;;;;;;0.10;0.10;;;8.90;99.90;;;;;;5114968;27;20477;-66
2023/10/15 09:27:56;;;;;;;0.00;0.00;;;8.90;99.90;;;;;;5116828;27;20041;-68
2023/10/15 09:30:26;;;;;;;0.10;0.10;;;8.80;99.90;;;;;;5082061;28;20043;-66
2023/10/15 09:32:54;;;;;;;0.10;0.10;;;8.80;99.90;;;;;;5106717;28;20043;-66
2023/10/15 09:35:20;;;;;;;0.10;0.10;;;8.80;99.90;;;;;;5123519;28;20054;-66
2023/10/15 09:37:46;;;;;;;0.05;0.05;;;8.90;99.90;;;;;;5082555;28;20055;-65
2023/10/15 09:40:23;;;;;;;0.00;0.00;;;9.00;99.90;;;;;;5073073;28;20031;-66
2023/10/15 09:42:53;;;;;;;0.13;0.13;;;9.20;99.90;;;;;;5112162;27;20123;-66
2023/10/15 09:45:23;;;;;;;0.10;0.10;;;9.20;99.90;;;;;;5090875;28;20527;-67
2023/10/15 09:47:57;;;;;;;2.45;0.52;;;9.40;99.90;;;;;;5111810;28;20044;-66
2023/10/15 09:50:27;;;;;;;0.00;0.00;;;9.50;99.90;;;;;;5075768;28;20040;-66
2023/10/15 09:52:57;;;;;;;0.10;0.10;;;9.60;99.90;;;;;;5111471;28;20386;-67
2023/10/15 09:55:27;;;;;;;1.10;0.57;;;9.70;99.90;;;;;;5103581;28;20036;-67
2023/10/15 09:58:10;;;;;;;0.00;0.00;;;9.80;99.90;;;;;;5088651;28;20493;-65
2023/10/15 10:01:08;;;;;;;0.00;0.00;;;9.90;99.90;;;;;;5117124;28;20039;-65
2023/10/15 10:03:49;;;;;;;0.00;0.00;;;9.80;99.90;;;;;;5117641;28;20040;-66
2023/10/15 10:06:51;;;;;;;0.20;0.20;;;9.70;99.90;;;;;;5087132;28;20126;-65
2023/10/15 10:09:30;;;;;;;0.10;0.10;;;9.40;99.90;;;;;;5071410;28;20150;-65
2023/10/15 10:12:34;;;;;;;0.10;0.10;;;9.30;99.90;;;;;;5109612;28;20122;-66
2023/10/15 10:15:25;;;;;;;0.00;0.00;;;9.30;99.90;;;;;;5064415;28;20152;-66
2023/10/15 10:17:52;;;;;;;0.10;0.10;;;9.40;99.90;;;;;;5119811;27;20047;-66
2023/10/15 10:20:19;;;;;;;1.75;0.13;;;9.60;99.90;;;;;;5087151;28;20032;-66
2023/10/15 10:23:05;;;;;;;0.08;0.08;;;9.80;99.90;;;;;;5123458;27;20544;-67
2023/10/15 10:25:42;;;;;;;0.47;0.30;;;9.90;99.90;;;;;;5094748;27;20032;-66
2023/10/15 10:28:20;;;;;;;0.10;0.10;;;10.00;99.90;;;;;;5089472;28;20069;-67
2023/10/15 10:30:57;;;;;;;0.17;0.13;;;10.10;99.90;;;;;;5106392;27;20086;-66
2023/10/15 10:33:42;;;;;;;0.17;0.17;;;10.30;99.90;;;;;;5087532;28;20043;-65
2023/10/15 10:36:18;;;;;;;0.25;0.20;;;10.40;99.90;;;;;;5125416;27;20122;-67
2023/10/15 10:39:12;;;;;;;0.10;0.10;;;10.50;99.90;;;;;;5089006;28;20066;-66
2023/10/15 10:41:49;;;;;;;0.20;0.20;;;10.60;99.90;;;;;;5123240;27;20040;-66
2023/10/15 10:44:23;;;;;;;0.10;0.10;;;10.70;99.90;;;;;;5109110;27;20503;-66
2023/10/15 10:46:52;;;;;;;1.35;0.82;;;10.90;99.90;;;;;;5088014;28;20038;-66
2023/10/15 10:49:28;;;;;;;0.32;0.20;;;11.00;99.90;;;;;;5113988;27;20040;-67
2023/10/15 10:52:14;;;;;;;0.00;0.00;;;11.20;99.90;;;;;;5109117;27;20178;-67
2023/10/15 10:54:39;;;;;;;0.45;0.25;;;11.30;99.90;;;;;;5091027;28;20152;-66
2023/10/15 10:57:09;;;;;;;0.32;0.32;;;11.50;99.90;;;;;;5124728;27;20136;-65
2023/10/15 10:59:37;;;;;;;0.10;0.10;;;11.60;99.90;;;;;;5115931;27;20042;-65
2023/10/15 11:02:06;;;;;;;0.30;0.30;;;11.60;99.90;;;;;;5124457;27;20054;-65
2023/10/15 11:04:33;;;;;;;2.83;0.30;;;11.50;99.90;;;;;;5087322;28;20073;-66
2023/10/15 11:06:58;;;;;;;0.10;0.10;;;11.20;99.90;;;;;;5092232;27;20039;-66
2023/10/15 11:09:25;;;;;;;0.75;0.20;;;10.30;99.90;;;;;;5088106;27;20039;-64
2023/10/15 11:11:55;;;;;;;0.00;0.00;;;9.20;99.90;;;;;;5091798;28;20096;-66
2023/10/15 11:14:23;;;;;;;0.00;0.00;;;8.40;99.90;;;;;;5123041;27;20051;-66
2023/10/15 11:16:50;;;;;;;0.10;0.10;;;7.90;99.90;;;;;;5087876;27;20079;-66
2023/10/15 11:19:29;;;;;;;0.00;0.00;;;7.80;99.90;;;;;;5087730;27;20415;-65
2023/10/15 11:21:55;;;;;;;0.15;0.15;;;7.60;99.90;;;;;;5120443;27;20117;-66
2023/10/15 11:24:23;;;;;;;0.00;0.00;;;7.70;99.90;;;;;;5087929;27;20047;-65
2023/10/15 11:26:49;;;;;;;0.10;0.10;;;7.90;99.90;;;;;;5088711;28;20036;-65
2023/10/15 11:29:20;;;;;;;0.28;0.25;;;8.10;99.90;;;;;;5120492;27;20101;-66
2023/10/15 11:31:48;;;;;;;0.10;0.10;;;8.30;99.90;;;;;;5080222;27;20119;-65
2023/10/15 11:34:25;;;;;;;0.10;0.10;;;8.40;99.90;;;;;;5090539;27;20470;-66
2023/10/15 11:36:55;;;;;;;2.53;0.35;;;8.50;99.90;;;;;;5108184;27;20059;-66
2023/10/15 11:42:11;;;;;;;6.22;0.57;;;8.70;99.90;;;;;;5091559;27;20130;-66
2023/10/15 11:44:42;;;;;;;0.40;0.40;;;8.80;99.90;;;;;;5086411;28;20062;-65
2023/10/15 11:47:20;;;;;;;0.10;0.10;;;8.90;99.90;;;;;;5115212;27;20061;-65
2023/10/15 11:49:46;;;;;;;0.10;0.10;;;9.00;99.90;;;;;;5088523;27;20679;-65
2023/10/15 11:52:14;;;;;;;0.10;0.10;;;9.10;99.90;;;;;;5117308;27;20073;-66
2023/10/15 11:54:48;;;;;;;0.40;0.40;;;9.10;99.90;;;;;;5116787;27;20047;-65
2023/10/15 11:57:20;;;;;;;1.95;0.20;;;9.30;99.90;;;;;;5090534;28;20035;-65
2023/10/15 11:59:45;;;;;;;0.70;0.25;;;9.40;99.90;;;;;;5093937;28;20036;-65
2023/10/15 12:02:11;;;;;;;0.08;0.08;;;9.70;99.90;;;;;;5087107;28;20051;-66
2023/10/15 12:04:40;;;;;;;0.00;0.00;;;9.90;99.90;;;;;;5085464;28;20127;-66
2023/10/15 12:07:06;;;;;;;2.83;0.28;;;10.00;99.90;;;;;;5093175;28;20036;-64
2023/10/15 12:09:32;;;;;;;0.82;0.28;;;10.10;99.90;;;;;;5092924;28;20054;-65
2023/10/15 12:11:59;;;;;;;0.10;0.10;;;10.20;99.90;;;;;;5089748;27;20402;-64
2023/10/15 12:14:24;;;;;;;0.08;0.08;;;10.40;99.90;;;;;;5086304;28;20058;-68
2023/10/15 12:16:50;;;;;;;0.00;0.00;;;10.50;99.90;;;;;;5079065;28;20135;-66
2023/10/15 12:19:17;;;;;;;0.10;0.10;;;10.60;99.90;;;;;;5081462;27;20459;-67
2023/10/15 12:21:43;;;;;;;0.30;0.30;;;10.80;99.90;;;;;;5124818;27;20043;-66
2023/10/15 12:24:09;;;;;;;0.32;0.20;;;10.90;99.90;;;;;;5120557;27;20044;-65
2023/10/15 12:26:35;;;;;;;1.20;0.30;;;11.00;99.90;;;;;;5090446;28;20047;-67
2023/10/15 12:29:03;;;;;;;0.10;0.10;;;11.10;99.90;;;;;;5086489;27;20039;-67
2023/10/15 12:31:32;;;;;;;0.10;0.10;;;11.10;99.90;;;;;;5109672;27;20044;-66
2023/10/15 12:34:02;;;;;;;0.20;0.10;;;11.20;99.90;;;;;;5085788;28;20047;-67
2023/10/15 12:36:28;;;;;;;0.10;0.10;;;11.20;99.90;;;;;;5118642;27;20044;-64
2023/10/15 12:38:56;;;;;;;0.00;0.00;;;11.20;99.90;;;;;;5122867;27;20043;-67
2023/10/15 12:41:22;;;;;;;0.93;0.93;;;11.20;99.90;;;;;;5106491;27;20039;-66
2023/10/15 12:43:49;;;;;;;0.10;0.10;;;11.10;99.90;;;;;;5088086;28;20693;-67
2023/10/15 12:46:16;;;;;;;0.88;0.88;;;11.10;99.90;;;;;;5089651;28;20054;-66
2023/10/15 12:48:43;;;;;;;0.10;0.10;;;11.10;99.90;;;;;;5118442;27;20047;-65
2023/10/15 12:51:10;;;;;;;0.10;0.10;;;11.10;99.90;;;;;;5116120;27;20044;-66
2023/10/15 12:53:35;;;;;;;0.20;0.20;;;11.10;99.90;;;;;;5113712;27;20422;-66
2023/10/15 12:56:01;;;;;;;0.52;0.10;;;11.20;99.90;;;;;;5090310;28;20035;-67
2023/10/15 12:58:26;;;;;;;1.25;0.85;;;11.10;99.90;;;;;;5085358;28;20712;-65
2023/10/15 13:00:53;;;;;;;0.10;0.10;;;11.20;99.90;;;;;;5084114;28;20394;-66
2023/10/15 13:03:18;;;;;;;0.10;0.10;;;11.30;99.90;;;;;;5114995;27;20047;-65
2023/10/15 13:05:44;;;;;;;0.10;0.10;;;11.30;99.90;;;;;;5074626;27;20077;-66
2023/10/15 13:08:10;;;;;;;0.10;0.10;;;11.40;99.90;;;;;;5124547;27;20039;-65
2023/10/15 13:10:36;;;;;;;0.00;0.00;;;11.20;99.90;;;;;;5121316;27;20084;-66
2023/10/15 13:13:01;;;;;;;0.10;0.10;;;11.00;99.90;;;;;;5075610;28;20045;-67
2023/10/15 13:15:27;;;;;;;0.10;0.10;;;10.80;99.90;;;;;;5086089;28;20066;-65
2023/10/15 13:17:56;;;;;;;0.10;0.10;;;10.60;99.90;;;;;;5088085;28;20089;-68
2023/10/15 13:20:23;;;;;;;0.10;0.10;;;10.40;99.90;;;;;;5116083;27;20101;-66
2023/10/15 13:22:49;;;;;;;0.10;0.10;;;10.20;99.90;;;;;;5116222;27;20052;-66
2023/10/15 13:25:15;;;;;;;0.13;0.13;;;10.20;99.90;;;;;;5091733;28;20063;-66
2023/10/15 13:27:45;;;;;;;0.15;0.15;;;10.10;99.90;;;;;;5084080;28;20462;-66